Racecast

Jackie Healey

Bella Vista (CA) · 12 · CVCCA D2SJS D2 · Compare head to head

Athlete rating 123.9 2013 XC season
Best race 117.2 TF
Races 83
Seasons 5 2010 — 2014

RankedNation #15135·CA #5115·CA D2 #2262·SJS #376·SJS D2 #91·CVC #44·Team #25 ?

Speed rating — all races

Cross Country

XC speed rating

2013 XC 109.1

Bella Vista (CA) · Grade 12

Date Meet Event Result Place Rating Difficulty PR/SR Flags
2013-11-01 Willow Hills Reservoir Course 5000m 23:40.4 26th · 11th on team 108.8 +0.045
2013-10-19 Willow Hills Reservoir Course 5000m 22:50.4 69th · 4th on team 112.8 +0.045 CSR RSR
2013-10-12 Woodward Park 5000m 22:07 48th · 2nd on team 112.6 +0.013 CSR RSR
2013-10-09 Maidu Park 5000m 21:51 17th · 8th on team 111.7 -0.007 SR CSR RSR
2013-09-07 Lagoon Valley Park 3218m 16:57 12th · 2nd on team 101.3 +0.121 SR CSR
2013-08-23 Bella Vista High School 3200m 14:26 11th · 11th on team 107.2 +0.021 ★PR ★CR SR CSR RSR

2012 XC 110.2

Bella Vista (CA) · Grade 11

Date Meet Event Result Place Rating Difficulty PR/SR Flags
2012-11-03 Calaveras County Fairgrounds 4828m 23:14 22nd · 4th on team 109.4 +0.065 ★CR SR CSR
2012-10-26 Willow Hills Reservoir Course 5000m 23:16.7 23rd · 8th on team 110.5 +0.045 CSR
2012-10-13 Willow Hills Reservoir Course 5000m 23:34.4 10th · 1st on team 109.4 +0.045 CSR
2012-10-10 Granite Park 5000m 22:17.9 21st · 8th on team 111.2 +0.002 SR CSR RSR
2012-08-24 Woodland High School 3218m 14:06 6th · 5th on team 110.6 +0.024 SR CSR RSR

2011 XC 113.7

Bella Vista (CA) · Grade 10

Date Meet Event Result Place Rating Difficulty PR/SR Flags
2011-11-11 Willow Hills Reservoir Course 3400m 14:36 13th · 1st on team 116.5 +0.043 ★PR ★CR R SR CSR RSR
2011-11-05 Calaveras County Fairgrounds 3218m 14:35 11th · 2nd on team 112.9 +0.084 ★CR CSR
2011-10-28 Willow Hills Reservoir Course 5000m 22:58.9 23rd · 10th on team 112.6 +0.045 CSR
2011-10-15 Willow Hills Reservoir Course 3400m 14:45.4 23rd · 3rd on team 116.1 +0.043 PR CR SR CSR
2011-10-12 Maidu Park 5000m 21:33 13th · 7th on team 114.5 -0.007 ★CR CSR
2011-10-08 Granite Park 5000m 21:19 25th · 3rd on team 116.5 +0.002 ★PR ★CR R SR CSR RSR
2011-10-08 Woodward Park 5000m 22:13 120th · 7th on team 113.0 +0.013 CSR
2011-09-14 Granite Park 5000m 22:51.6 17th · 7th on team 108.7 +0.002
2011-09-10 Granite Park 5000m 22:09 43rd · 7th on team 113.2 +0.002 CR SR CSR
2011-09-03 Lagoon Valley Park 4828m 22:07 47th · 6th on team 113.7 +0.056 ★PR ★CR SR CSR RSR
2011-08-26 Woodland High School 3218m 13:45 6th · 6th on team 112.7 +0.024 ★PR ★CR SR CSR RSR

2010 XC 109.6

Bella Vista (CA) · Grade 9

Date Meet Event Result Place Rating Difficulty PR/SR Flags
2010-11-13 Willow Hills Reservoir Course 3200m 14:34 32nd · 1st on team 113.8 +0.088 PR ★CR SR CSR
2010-11-06 Calaveras County Fairgrounds 3218m 14:49 9th · 1st on team 113.2 +0.084 CR CSR
2010-10-29 Willow Hills Reservoir Course 5000m 22:26 20th · 8th on team 115.3 +0.045 ★CR CSR
2010-10-16 Willow Hills Reservoir Course 3400m 15:07.8 15th · 1st on team 112.9 +0.043 PR CR SR CSR
2010-10-12 Granite Park 4828m 23:51 29th · 8th on team 102.5 +0.012
2010-10-09 Woodward Park 5000m 21:43 120th · 7th on team 115.9 +0.013 PR ★CR R SR CSR RSR
2010-09-25 Calaveras County Fairgrounds 3218m 16:57 3rd · 2nd on team 98.7 +0.084 CR CSR
2010-09-15 Granite Park 4828m 22:49 24th · 8th on team 106.0 +0.012 PR ★CR SR CSR
2010-09-04 Lagoon Valley Park 3218m 15:41.7 17th · 2nd on team 109.5 +0.121 ★CR R CSR RSR
2010-08-27 Woodland High School 3218m 14:24 8th · 8th on team 107.8 +0.024 PR CR R SR CSR RSR

Track & Field

TF speed rating

2014 TF

Bella Vista (CA) · Grade 12

Date Meet Event Result Place Rating Difficulty PR/SR Flags
2014-05-21 Sac Joaquin Section Division II-III Prelims 400m 1:04.45 18th · 2nd on team -0.036 ★PR SR
2014-05-16 Capital Valley Conference Finals 400m 1:05.72 5th · 2nd on team -0.028
2014-05-16 Capital Valley Conference Finals 200m 29.05 10th · 3rd on team -0.028
2014-04-30 CVC Center Meet 3 100m 14.15 11th · 4th on team -0.036 ★PR SR
2014-04-09 CVC Center Meet 2 400m 1:05.06 8th · 4th on team -0.025
2014-04-09 CVC Center Meet 2 200m 28.5 6th · 1st on team -0.025 SR
2014-03-19 CVC Center Meet 1 200m 29.15 7th · 1st on team -0.020 SR
2014-03-19 CVC Center Meet 1 400m 1:04.81 5th · 3rd on team -0.020 PR SR
2014-03-15 Folsom Depth Charge 400m 1:04.97 13th · 1st on team -0.021 PR SR
2014-03-08 King/Gilbert Invitational 400m 1:06.89 17th · 2nd on team -0.027 SR
2014-02-26 Bella Vista Intra-Squad 100m 14.5 2nd · 2nd on team -0.036 SR

2013 TF 110.0

Bella Vista (CA) · Grade 11

Date Meet Event Result Place Rating Difficulty PR/SR Flags
2013-05-15 Sac Joaquin Section Division II-III Prelims 400m 1:05.7 15th · 2nd on team -0.036 PR SR
2013-05-10 CVC Finals 200m 28.7 9th · 2nd on team -0.025
2013-05-10 CVC Finals 400m 1:06.24 4th · 2nd on team -0.025
2013-05-03 Nevada Union Invitational 200m 28.2 16th · 2nd on team -0.015 ★PR SR
2013-05-03 Nevada Union Invitational 400m 1:06.54 18th · 2nd on team -0.015
2013-04-17 CVC Center Meet 3 400m 1:05.88 6th · 5th on team -0.020 PR SR
2013-04-17 CVC Center Meet 3 200m 28.41 7th · 3rd on team -0.020 PR SR
2013-04-13 Bella Vista Bronco Invitational 400m 1:06.64 24th · 2nd on team -0.036
2013-03-20 CVC Center Meet 2 400m 1:07.7 4th · 2nd on team -0.028
2013-03-20 CVC Center Meet 2 200m 29.59 6th · 2nd on team -0.028 PR SR
2013-03-16 Depth Charge 400m 1:05.89 13th · 1st on team -0.021 PR SR
2013-03-09 King/Gilbert Invitational 400m 1:09.54 22nd · 2nd on team -0.027
2013-03-06 CVC Center Meet 1 400m 1:07.91 6th · 4th on team -0.036 PR SR
2013-02-27 Red and Black Intrasquad Pentathlon 800m 2:45.19 3rd · 3rd on team 110.0 -0.036 SR RSR
2013-02-27 Red and Black Intrasquad Pentathlon 100m 14.43 5th · 5th on team -0.036 PR SR

2012 TF 111.9

Bella Vista (CA) · Grade 10

Date Meet Event Result Place Rating Difficulty PR/SR Flags
2012-05-11 Capital Valley Conference Finals 1600m 6:13.33 10th · 4th on team 111.7 -0.020
2012-05-05 Bella Vista Bronco Invitational 1600m 6:20.11 13th · 5th on team 107.6 -0.036
2012-04-27 Sheldon Distance Carnival 1600m 6:05 10th · 1st on team 112.7 -0.031 SR
2012-04-18 CVC Center Meet 3 800m 2:45.38 6th · 4th on team 110.7 -0.028
2012-03-21 CVC Center Meet 1 800m 2:34.66 6th · 4th on team 117.2 -0.036 ★PR ★R SR RSR
2012-03-17 Dublin Distance Fiesta 800m 2:45.9 63rd · 7th on team 110.1 -0.038
2012-03-17 Dublin Distance Fiesta 1600m 6:12.4 69th · 7th on team 110.3 -0.038 SR
2012-03-10 Bob King - Don Gilbert Invitational 800m 2:41.13 9th · 1st on team 113.7 -0.027 PR SR RSR
2012-03-07 Bella Vista - Ponderosa Dual 800m 2:41.49 6th · 4th on team 113.2 -0.036 PR SR RSR

2011 TF 110.2

Bella Vista (CA) · Grade 9

Date Meet Event Result Place Rating Difficulty PR/SR Flags
2011-05-12 Capital Valley Conference Finals 1600m 6:04.39 9th · 5th on team 112.3 -0.036 ★PR SR
2011-05-12 Capital Valley Conference Finals 800m 2:50.21 13th · 5th on team 106.8 -0.036
2011-05-07 SacTown Races Frosh Soph Invitational 800m 2:46.36 26th · 5th on team 110.8 -0.024
2011-05-07 SacTown Races Frosh Soph Invitational 1500m 5:43.08 26th · 5th on team 112.5 -0.024 ★PR SR RSR
2011-04-22 West Valley/Chico Invitational 1600m 6:09.22 52nd · 5th on team 110.7 -0.033
2011-04-22 West Valley/Chico Invitational 800m 2:47.84 54th · 5th on team 108.2 -0.033
2011-04-08 Bronco Roundup Distance Carnival 1600m 6:06.71 39th · 5th on team 111.4 -0.036 PR SR
2011-04-08 Bronco Roundup Distance Carnival 800m 2:45.03 28th · 4th on team 110.0 -0.036 PR SR
2011-04-06 CVC Center Meet 2 800m 2:46.79 9th · 3rd on team 110.1 -0.025
2011-04-06 CVC Center Meet 2 1600m 6:09.86 13th · 6th on team 112.0 -0.025 RSR
2011-04-02 Bella Vista Bronco Invitational 1600m 6:08.93 35th · 6th on team 110.9 -0.036
2011-04-02 Bella Vista Bronco Invitational 800m 2:46.05 25th · 3rd on team 109.5 -0.036
2011-03-16 CVC Center Meet 1 1600m 6:07.28 17th · 7th on team 111.6 -0.036 PR SR RSR
2011-03-16 CVC Center Meet 1 800m 2:45.96 10th · 4th on team 109.9 -0.036 PR SR
2011-03-12 King Gilbert Invitational 800m 2:50.96 17th · 1st on team 107.0 -0.027 PR SR RSR
2011-03-12 King Gilbert Invitational 1600m 6:16.19 27th · 2nd on team 109.5 -0.027 PR SR RSR